createdAt,value
2022-12-29T00:00:27.600Z,100048.97
2022-12-29T00:02:55.531Z,100052.31
2022-12-29T00:05:23.349Z,100044.16
2022-12-29T00:07:52.566Z,100053.28
2022-12-29T00:10:20.353Z,100060.53
2022-12-29T00:13:05.860Z,100046.28
2022-12-29T00:15:39.714Z,100043.59
2022-12-29T00:18:08.273Z,100036.59
2022-12-29T00:20:54.722Z,100033.09
2022-12-29T00:23:41.528Z,100024.22
2022-12-29T00:26:33.373Z,100017.22
2022-12-29T00:29:18.940Z,100000.91
2022-12-29T00:32:04.247Z,100009.38
2022-12-29T00:34:49.900Z,100013.13
2022-12-29T00:37:18.301Z,100012.31
2022-12-29T00:40:04.979Z,99997.00
2022-12-29T00:42:50.163Z,100000.50
2022-12-29T00:45:18.220Z,99990.34
2022-12-29T00:47:46.249Z,99983.31
2022-12-29T00:50:13.078Z,99988.94
2022-12-29T00:52:40.836Z,99987.06
2022-12-29T00:55:10.328Z,99987.88
2022-12-29T00:57:38.086Z,99984.38
2022-12-29T01:00:06.723Z,99979.81
2022-12-29T01:02:35.030Z,99983.31
2022-12-29T01:05:02.889Z,99977.13
2022-12-29T01:07:30.736Z,99967.44
2022-12-29T01:10:13.979Z,99964.75
2022-12-29T01:12:43.280Z,99943.44
2022-12-29T01:15:13.508Z,99959.16
2022-12-29T01:17:42.227Z,99960.44
2022-12-29T01:20:11.764Z,99973.06
2022-12-29T01:22:40.045Z,99964.75
2022-12-29T01:25:08.714Z,99955.88
2022-12-29T01:27:36.711Z,99955.66
2022-12-29T01:30:07.303Z,99960.53
2022-12-29T01:32:35.141Z,99947.09
2022-12-29T01:35:02.918Z,99954.34
2022-12-29T01:37:30.841Z,99961.84
2022-12-29T01:39:59.005Z,99952.47
2022-12-29T01:42:28.347Z,99945.47
2022-12-29T01:44:58.042Z,99946.53
2022-12-29T01:47:38.927Z,99944.66
2022-12-29T01:50:11.708Z,99948.22
2022-12-29T01:52:43.786Z,99943.34
2022-12-29T01:55:12.802Z,99947.09
2022-12-29T01:57:46.097Z,99944.25
2022-12-29T02:00:16.205Z,99944.72
2022-12-29T02:02:52.584Z,99958.97
2022-12-29T02:05:26.921Z,99951.97
2022-12-29T02:07:55.573Z,99944.06
2022-12-29T02:10:26.714Z,99956.28
2022-12-29T02:12:55.950Z,99932.03
2022-12-29T02:15:31.439Z,99958.50
2022-12-29T02:18:17.889Z,99954.19
2022-12-29T02:21:37.857Z,99951.50
2022-12-29T02:24:27.546Z,99971.94
2022-12-29T02:27:26.319Z,99955.00
2022-12-29T02:30:08.327Z,99957.91
2022-12-29T02:32:47.887Z,99945.53
2022-12-29T02:35:27.780Z,99940.16
2022-12-29T02:38:05.359Z,99938.28
2022-12-29T02:40:42.697Z,99938.53
2022-12-29T02:43:26.652Z,99912.72
2022-12-29T02:45:59.377Z,99929.16
2022-12-29T02:48:34.901Z,99926.47
2022-12-29T02:51:05.052Z,99926.16
2022-12-29T02:53:53.676Z,99936.91
2022-12-29T02:56:21.661Z,99918.34
2022-12-29T02:58:49.811Z,99915.41
2022-12-29T03:01:31.062Z,99917.03
2022-12-29T03:04:14.400Z,99891.88
2022-12-29T03:06:55.099Z,99911.91
2022-12-29T03:09:31.353Z,99916.22
2022-12-29T03:12:11.726Z,99912.72
2022-12-29T03:15:06.171Z,99914.34
2022-12-29T03:17:41.559Z,99915.41
2022-12-29T03:20:15.920Z,99905.72
2022-12-29T03:22:47.020Z,99903.84
2022-12-29T03:25:18.961Z,99903.03
2022-12-29T03:27:50.380Z,99899.28
2022-12-29T03:30:19.474Z,99901.97
2022-12-29T03:32:51.269Z,99900.34
2022-12-29T03:35:24.007Z,99905.72
2022-12-29T03:37:58.240Z,99900.34
2022-12-29T03:40:28.590Z,99915.91
2022-12-29T03:42:57.294Z,99907.84
2022-12-29T03:45:25.147Z,99910.03
2022-12-29T03:47:54.044Z,99900.34
2022-12-29T03:50:23.196Z,99901.41
2022-12-29T03:52:50.940Z,99903.28
2022-12-29T03:55:18.692Z,99900.59
2022-12-29T03:57:46.616Z,99919.41
2022-12-29T04:00:15.280Z,99930.41
2022-12-29T04:02:43.479Z,99937.66
2022-12-29T04:05:11.420Z,99939.84
2022-12-29T04:07:40.565Z,99934.47
2022-12-29T04:10:08.808Z,99925.59
2022-12-29T04:12:36.776Z,99920.47
2022-12-29T04:15:05.059Z,99921.28
2022-12-29T04:17:32.770Z,99930.41
2022-12-29T04:20:14.605Z,99942.22
2022-12-29T04:22:43.722Z,99945.72
2022-12-29T04:25:12.149Z,99938.69
2022-12-29T04:27:39.919Z,99943.50
2022-12-29T04:30:08.945Z,99949.13
2022-12-29T04:32:36.784Z,99931.38
2022-12-29T04:35:04.964Z,99949.13
2022-12-29T04:37:32.740Z,99950.19
2022-12-29T04:40:01.868Z,99945.63
2022-12-29T04:42:29.664Z,99945.31
2022-12-29T04:44:57.444Z,99956.03
2022-12-29T04:47:25.232Z,99964.09
2022-12-29T04:49:53.042Z,99963.53
2022-12-29T04:52:20.972Z,99971.59
2022-12-29T04:54:48.750Z,99970.78
2022-12-29T04:57:17.939Z,99978.03
2022-12-29T04:59:46.386Z,99971.28
2022-12-29T05:02:14.343Z,99978.03
2022-12-29T05:04:42.357Z,99987.97
2022-12-29T05:07:10.701Z,99998.94
2022-12-29T05:09:38.627Z,99993.56
2022-12-29T05:12:07.367Z,99995.44
2022-12-29T05:14:36.753Z,100008.66
2022-12-29T05:17:04.469Z,100006.19
2022-12-29T05:19:32.404Z,100011.56
2022-12-29T05:22:00.153Z,100005.13
2022-12-29T05:24:27.981Z,100007.00
2022-12-29T05:26:55.769Z,100016.13
2022-12-29T05:29:23.677Z,100007.25
2022-12-29T05:31:52.801Z,100001.88
2022-12-29T05:34:20.583Z,99987.38
2022-12-29T05:36:48.385Z,99981.59
2022-12-29T05:39:16.172Z,100008.06
2022-12-29T05:41:44.007Z,100001.88
2022-12-29T05:44:12.335Z,100032.50
2022-12-29T05:46:40.644Z,100038.91
2022-12-29T05:49:09.873Z,100028.41
2022-12-29T05:51:37.640Z,100036.47
2022-12-29T05:54:05.842Z,100033.31
2022-12-29T05:56:33.660Z,100045.09
2022-12-29T05:59:01.437Z,100046.97
2022-12-29T06:01:29.543Z,100043.25
2022-12-29T06:03:57.582Z,100047.88
2022-12-29T06:06:27.004Z,100043.34
2022-12-29T06:08:54.919Z,100043.09
2022-12-29T06:11:22.879Z,100036.56
2022-12-29T06:13:50.900Z,100033.31
2022-12-29T06:16:18.785Z,100035.19
2022-12-29T06:18:46.586Z,100033.78
2022-12-29T06:21:14.351Z,100038.09
2022-12-29T06:23:43.772Z,100043.47
2022-12-29T06:26:11.605Z,100032.97
2022-12-29T06:28:39.386Z,100034.84
2022-12-29T06:31:07.229Z,100031.91
2022-12-29T06:33:35.044Z,100058.78
2022-12-29T06:36:02.771Z,100036.47
2022-12-29T06:38:30.657Z,100036.47
2022-12-29T06:40:59.794Z,100027.59
2022-12-29T06:43:28.351Z,100037.28
2022-12-29T06:45:56.339Z,100038.59
2022-12-29T06:48:24.342Z,100027.84
2022-12-29T06:50:52.149Z,100039.41
2022-12-29T06:53:19.945Z,100032.97
2022-12-29T06:55:47.823Z,100042.09
2022-12-29T06:58:16.991Z,100040.22
2022-12-29T07:00:45.242Z,100034.03
2022-12-29T07:03:13.279Z,100049.91
2022-12-29T07:05:41.789Z,100055.28
2022-12-29T07:08:09.628Z,100057.72
2022-12-29T07:10:37.619Z,100053.66
2022-12-29T07:13:05.482Z,100069.78
2022-12-29T07:15:34.645Z,100063.59
2022-12-29T07:18:02.442Z,100053.06
2022-12-29T07:20:30.319Z,100070.81
2022-12-29T07:22:58.119Z,100066.25
2022-12-29T07:25:26.124Z,100077.81
2022-12-29T07:27:54.185Z,100075.97
2022-12-29T07:30:22.055Z,100092.31
2022-12-29T07:32:51.217Z,100096.72
2022-12-29T07:35:19.231Z,100085.06
2022-12-29T07:37:47.064Z,100074.16
2022-12-29T07:40:16.123Z,100102.47
2022-12-29T07:42:43.991Z,100093.84
2022-12-29T07:45:12.612Z,100088.25
2022-12-29T07:47:40.418Z,100086.59
2022-12-29T07:50:10.080Z,100093.84
2022-12-29T07:52:37.976Z,100089.53
2022-12-29T07:55:06.557Z,100083.34
2022-12-29T07:57:34.350Z,100087.66
2022-12-29T08:00:02.175Z,100094.03
2022-12-29T08:02:30.755Z,100099.91
2022-12-29T08:04:58.646Z,100100.13
2022-12-29T08:07:27.816Z,100100.84
2022-12-29T08:09:55.637Z,100100.63
2022-12-29T08:12:23.385Z,100095.81
2022-12-29T08:14:51.218Z,100104.59
2022-12-29T08:17:18.965Z,100111.84
2022-12-29T08:19:46.739Z,100129.00
2022-12-29T08:22:15.775Z,100113.47
2022-12-29T08:24:44.952Z,100120.72
2022-12-29T08:27:19.898Z,100124.69
2022-12-29T08:29:48.439Z,100125.13
2022-12-29T08:32:16.674Z,100130.41
2022-12-29T08:34:44.452Z,100134.72
2022-12-29T08:37:12.471Z,100121.97
2022-12-29T08:39:40.308Z,100121.88
2022-12-29T08:42:09.474Z,100124.06
2022-12-29T08:44:37.253Z,100130.69
2022-12-29T08:47:05.082Z,100136.78
2022-12-29T08:49:34.229Z,100123.22
2022-12-29T08:52:02.060Z,100124.22
2022-12-29T08:54:29.910Z,100104.69
2022-12-29T08:56:57.723Z,100129.19
2022-12-29T08:59:27.044Z,100114.94
2022-12-29T09:01:54.920Z,100130.19
2022-12-29T09:04:24.697Z,100122.84
2022-12-29T09:06:52.649Z,100123.41
2022-12-29T09:09:20.861Z,100129.34
2022-12-29T09:11:48.629Z,100121.78
2022-12-29T09:14:16.493Z,100124.88
2022-12-29T09:17:03.133Z,100131.25
2022-12-29T09:19:32.414Z,100129.38
2022-12-29T09:22:01.081Z,100150.72
2022-12-29T09:24:28.963Z,100151.22
2022-12-29T09:26:56.897Z,100146.06
2022-12-29T09:29:25.232Z,100140.97
2022-12-29T09:31:54.438Z,100153.38
2022-12-29T09:34:22.576Z,100157.13
2022-12-29T09:36:50.556Z,100164.31
2022-12-29T09:39:18.422Z,100157.41
2022-12-29T09:41:54.608Z,100161.75
2022-12-29T09:44:28.821Z,100171.34
2022-12-29T09:46:59.953Z,100188.88
2022-12-29T09:49:35.355Z,100181.94
2022-12-29T09:52:08.517Z,100181.56
2022-12-29T09:54:53.868Z,100186.38
2022-12-29T09:57:30.829Z,100200.63
2022-12-29T10:00:02.242Z,100207.47
2022-12-29T10:02:38.961Z,100217.00
2022-12-29T10:05:14.706Z,100225.22
2022-12-29T10:07:51.811Z,100235.88
2022-12-29T10:10:32.149Z,100225.13
2022-12-29T10:13:12.922Z,100243.84
2022-12-29T10:15:48.682Z,100251.59
2022-12-29T10:18:41.881Z,100244.19
2022-12-29T10:21:18.938Z,100241.53
2022-12-29T10:23:50.235Z,100265.06
2022-12-29T10:26:22.526Z,100250.22
2022-12-29T10:28:53.575Z,100270.91
2022-12-29T10:31:24.701Z,100275.72
2022-12-29T10:33:59.334Z,100284.72
2022-12-29T10:36:35.528Z,100277.13
2022-12-29T10:39:16.543Z,100299.81
2022-12-29T10:41:50.466Z,100297.38
2022-12-29T10:44:20.781Z,100301.44
2022-12-29T10:46:57.708Z,100309.00
2022-12-29T10:49:30.476Z,100311.50
2022-12-29T10:52:02.430Z,100313.75
2022-12-29T10:54:34.735Z,100307.69
2022-12-29T10:57:05.403Z,100316.25
2022-12-29T10:59:36.367Z,100318.34
2022-12-29T11:02:27.007Z,100325.50
2022-12-29T11:05:04.731Z,100327.84
2022-12-29T11:07:32.872Z,100330.78
2022-12-29T11:10:19.522Z,100326.09
2022-12-29T11:12:58.235Z,100306.13
2022-12-29T11:15:26.318Z,100336.75
2022-12-29T11:17:55.881Z,100340.72
2022-12-29T11:20:35.782Z,100327.66
2022-12-29T11:23:05.048Z,100347.97
2022-12-29T11:25:33.220Z,100346.34
2022-12-29T11:28:05.190Z,100339.56
2022-12-29T11:30:34.062Z,100353.47
2022-12-29T11:33:05.833Z,100367.75
2022-12-29T11:35:37.822Z,100364.00
2022-12-29T11:38:07.129Z,100356.41
2022-12-29T11:40:41.143Z,100362.03
2022-12-29T11:43:13.297Z,100357.22
2022-12-29T11:45:48.906Z,100360.16
2022-12-29T11:48:20.512Z,100363.31
2022-12-29T11:50:55.144Z,100369.50
2022-12-29T11:53:26.019Z,100364.38
2022-12-29T11:55:56.906Z,100367.03
2022-12-29T11:58:33.312Z,100364.00
2022-12-29T12:01:06.139Z,100376.41
2022-12-29T12:03:37.479Z,100371.03
2022-12-29T12:06:11.943Z,100363.66
2022-12-29T12:08:44.178Z,100351.72
2022-12-29T12:11:16.524Z,100362.53
2022-12-29T12:13:50.052Z,100355.03
2022-12-29T12:16:22.625Z,100362.13
2022-12-29T12:18:54.731Z,100363.94
2022-12-29T12:21:31.480Z,100371.84
2022-12-29T12:24:09.590Z,100369.66
2022-12-29T12:26:39.605Z,100371.31
2022-12-29T12:29:14.312Z,100377.31
2022-12-29T12:31:48.080Z,100368.81
2022-12-29T12:34:22.463Z,100372.47
2022-12-29T12:37:16.481Z,100372.81
2022-12-29T12:39:51.729Z,100382.44
2022-12-29T12:42:36.752Z,100385.59
2022-12-29T12:45:29.016Z,100386.88
2022-12-29T12:48:10.387Z,100399.16
2022-12-29T12:50:51.255Z,100386.19
2022-12-29T12:53:33.534Z,100393.69
2022-12-29T12:56:24.770Z,100390.41
2022-12-29T12:59:00.892Z,100401.41
2022-12-29T13:01:44.269Z,100393.31
2022-12-29T13:04:35.368Z,100395.19
2022-12-29T13:07:16.629Z,100394.63
2022-12-29T13:10:02.949Z,100394.38
2022-12-29T13:12:41.596Z,100396.59
2022-12-29T13:15:25.554Z,100379.75
2022-12-29T13:17:58.978Z,100393.91
2022-12-29T13:20:33.772Z,100400.75
2022-12-29T13:23:08.092Z,100406.31
2022-12-29T13:25:44.762Z,100405.91
2022-12-29T13:28:18.987Z,100420.91
2022-12-29T13:30:55.550Z,100422.03
2022-12-29T13:33:31.457Z,100411.66
2022-12-29T13:36:04.453Z,100418.91
2022-12-29T13:38:37.618Z,100418.84
2022-12-29T13:41:11.042Z,100425.06
2022-12-29T13:43:44.247Z,100436.06
2022-12-29T13:46:15.878Z,100434.66
2022-12-29T13:48:49.564Z,100443.19
2022-12-29T13:51:22.656Z,100444.50
2022-12-29T13:54:07.931Z,100430.25
2022-12-29T13:56:42.333Z,100441.34
2022-12-29T13:59:20.220Z,100437.50
2022-12-29T14:01:56.432Z,100433.63
2022-12-29T14:04:26.328Z,100450.00
2022-12-29T14:07:03.258Z,100450.25
2022-12-29T14:09:45.391Z,100449.75
2022-12-29T14:12:34.494Z,100441.75
2022-12-29T14:15:16.375Z,100442.66
2022-12-29T14:17:45.029Z,100450.22
2022-12-29T14:20:22.448Z,100442.47
2022-12-29T14:23:02.647Z,100441.78
2022-12-29T14:25:59.508Z,100444.28
2022-12-29T14:28:30.152Z,100437.28
2022-12-29T14:30:58.884Z,100445.16
2022-12-29T14:33:30.083Z,100449.38
2022-12-29T14:35:59.187Z,100447.28
2022-12-29T14:38:31.982Z,100459.09
2022-12-29T14:41:26.061Z,100452.81
2022-12-29T14:43:59.669Z,100451.88
2022-12-29T14:46:44.489Z,100453.75
2022-12-29T14:49:18.457Z,100462.28
2022-12-29T14:51:47.396Z,100468.97
2022-12-29T14:54:51.418Z,100472.59
2022-12-29T14:57:34.172Z,100473.88
2022-12-29T15:00:16.591Z,100477.84
2022-12-29T15:02:49.744Z,100480.19
2022-12-29T15:05:33.041Z,100466.75
2022-12-29T15:08:02.612Z,100483.69
2022-12-29T15:10:39.372Z,100485.56
2022-12-29T15:13:15.946Z,100486.84
2022-12-29T15:15:45.281Z,100505.91
2022-12-29T15:18:27.313Z,100498.31
2022-12-29T15:20:58.275Z,100507.69
2022-12-29T15:23:26.615Z,100493.53
2022-12-29T15:25:57.587Z,100505.22
2022-12-29T15:28:26.681Z,100505.78
2022-12-29T15:30:58.153Z,100509.31
2022-12-29T15:33:28.871Z,100507.91
2022-12-29T15:35:58.974Z,100511.31
2022-12-29T15:38:34.706Z,100508.03
2022-12-29T15:41:08.880Z,100509.31
2022-12-29T15:43:55.904Z,100516.81
2022-12-29T15:46:25.578Z,100522.06
2022-12-29T15:48:53.653Z,100508.25
2022-12-29T15:51:27.034Z,100511.41
2022-12-29T15:53:56.295Z,100509.78
2022-12-29T15:56:24.248Z,100529.91
2022-12-29T15:58:53.898Z,100534.69
2022-12-29T16:01:30.952Z,100520.41
2022-12-29T16:04:00.429Z,100530.22
2022-12-29T16:06:31.658Z,100544.38
2022-12-29T16:09:02.124Z,100542.16
2022-12-29T16:11:35.097Z,100539.69
2022-12-29T16:14:04.642Z,100538.06
2022-12-29T16:16:38.242Z,100545.41
2022-12-29T16:19:14.578Z,100569.50
2022-12-29T16:21:43.853Z,100561.91
2022-12-29T16:24:18.268Z,100556.75
2022-12-29T16:26:50.989Z,100545.28
2022-12-29T16:29:21.431Z,100554.53
2022-12-29T16:32:01.315Z,100572.53
2022-12-29T16:34:32.930Z,100568.41
2022-12-29T16:37:01.963Z,100553.09
2022-12-29T16:39:33.088Z,100574.50
2022-12-29T16:42:01.266Z,100578.00
2022-12-29T16:44:30.268Z,100572.84
2022-12-29T16:47:22.926Z,100578.00
2022-12-29T16:49:54.967Z,100580.69
2022-12-29T16:52:27.393Z,100576.59
2022-12-29T16:54:59.031Z,100580.56
2022-12-29T16:57:30.289Z,100573.03
2022-12-29T17:00:01.605Z,100578.56
2022-12-29T17:02:33.659Z,100581.69
2022-12-29T17:05:01.564Z,100585.78
2022-12-29T17:07:30.492Z,100597.81
2022-12-29T17:09:58.367Z,100586.72
2022-12-29T17:12:29.196Z,100586.94
2022-12-29T17:14:59.768Z,100592.91
2022-12-29T17:17:34.630Z,100600.97
2022-12-29T17:20:05.546Z,100609.03
2022-12-29T17:22:34.310Z,100614.84
2022-12-29T17:25:03.673Z,100616.13
2022-12-29T17:27:35.552Z,100624.19
2022-12-29T17:30:07.313Z,100623.38
2022-12-29T17:32:36.536Z,100633.06
2022-12-29T17:35:04.547Z,100621.41
2022-12-29T17:37:36.912Z,100625.59
2022-12-29T17:40:06.462Z,100637.38
2022-12-29T17:42:37.054Z,100648.97
2022-12-29T17:45:05.421Z,100644.22
2022-12-29T17:47:33.179Z,100641.09
2022-12-29T17:50:03.014Z,100649.56
2022-12-29T17:52:30.810Z,100647.84
2022-12-29T17:54:58.641Z,100649.13
2022-12-29T17:57:26.431Z,100654.03
2022-12-29T17:59:54.263Z,100647.94
2022-12-29T18:02:29.313Z,100663.63
2022-12-29T18:04:57.979Z,100652.84
2022-12-29T18:07:35.632Z,100659.47
2022-12-29T18:10:04.973Z,100655.03
2022-12-29T18:12:40.253Z,100644.47
2022-12-29T18:15:17.656Z,100663.78
2022-12-29T18:17:45.544Z,100665.28
2022-12-29T18:20:13.369Z,100665.75
2022-12-29T18:22:42.629Z,100675.69
2022-12-29T18:25:23.844Z,100673.91
2022-12-29T18:27:51.773Z,100677.03
2022-12-29T18:30:20.185Z,100692.00
2022-12-29T18:32:47.993Z,100678.41
2022-12-29T18:35:20.201Z,100685.06
2022-12-29T18:37:49.369Z,100682.38
2022-12-29T18:40:17.186Z,100682.97
2022-12-29T18:42:45.005Z,100688.94
2022-12-29T18:45:18.725Z,100686.25
2022-12-29T18:47:46.559Z,100682.16
2022-12-29T18:50:14.996Z,100683.28
2022-12-29T18:52:42.993Z,100706.78
2022-12-29T18:55:17.687Z,100694.63
2022-12-29T18:57:45.744Z,100705.84
2022-12-29T19:00:16.698Z,100704.19
2022-12-29T19:02:45.019Z,100698.44
2022-12-29T19:05:22.953Z,100697.84
2022-12-29T19:07:51.488Z,100703.47
2022-12-29T19:10:22.174Z,100706.38
2022-12-29T19:12:50.785Z,100702.25
2022-12-29T19:15:25.498Z,100709.72
2022-12-29T19:18:32.359Z,100709.88
2022-12-29T19:20:44.181Z,100713.44
2022-12-29T19:23:14.213Z,100717.84
2022-12-29T19:25:44.549Z,100717.06
2022-12-29T19:28:19.461Z,100717.84
2022-12-29T19:30:52.232Z,100716.38
2022-12-29T19:33:20.838Z,100715.22
2022-12-29T19:35:48.965Z,100716.03
2022-12-29T19:38:16.800Z,100723.16
2022-12-29T19:40:48.236Z,100732.59
2022-12-29T19:43:16.626Z,100724.94
2022-12-29T19:45:46.017Z,100727.97
2022-12-29T19:48:15.785Z,100723.94
2022-12-29T19:50:44.462Z,100725.31
2022-12-29T19:53:13.438Z,100730.53
2022-12-29T19:55:43.306Z,100736.38
2022-12-29T19:58:12.544Z,100729.22
2022-12-29T20:00:41.096Z,100748.47
2022-12-29T20:03:09.285Z,100747.28
2022-12-29T20:05:37.334Z,100744.22
2022-12-29T20:08:05.486Z,100750.03
2022-12-29T20:10:33.470Z,100741.59
2022-12-29T20:13:01.331Z,100753.03
2022-12-29T20:15:30.524Z,100757.81
2022-12-29T20:18:15.011Z,100752.06
2022-12-29T20:20:43.444Z,100753.31
2022-12-29T20:23:11.314Z,100753.09
2022-12-29T20:25:47.732Z,100761.38
2022-12-29T20:28:16.829Z,100765.34
2022-12-29T20:30:46.099Z,100774.69
2022-12-29T20:33:14.257Z,100772.59
2022-12-29T20:35:42.144Z,100759.19
2022-12-29T20:38:09.955Z,100771.09
2022-12-29T20:40:44.103Z,100776.34
2022-12-29T20:43:14.869Z,100767.06
2022-12-29T20:45:43.132Z,100757.88
2022-12-29T20:48:12.449Z,100765.06
2022-12-29T20:50:40.508Z,100766.09
2022-12-29T20:53:08.504Z,100775.19
2022-12-29T20:55:38.010Z,100771.09
2022-12-29T20:58:25.241Z,100775.88
2022-12-29T21:00:53.899Z,100760.00
2022-12-29T21:03:24.703Z,100782.50
2022-12-29T21:05:53.708Z,100781.69
2022-12-29T21:08:22.178Z,100789.94
2022-12-29T21:10:51.084Z,100792.84
2022-12-29T21:13:19.246Z,100786.63
2022-12-29T21:15:47.477Z,100792.22
2022-12-29T21:18:15.396Z,100790.59
2022-12-29T21:20:44.519Z,100786.47
2022-12-29T21:23:12.296Z,100778.66
2022-12-29T21:25:44.856Z,100779.69
2022-12-29T21:28:13.196Z,100785.50
2022-12-29T21:30:41.944Z,100800.78
2022-12-29T21:33:10.227Z,100801.00
2022-12-29T21:35:38.784Z,100797.50
2022-12-29T21:38:08.502Z,100789.66
2022-12-29T21:40:38.421Z,100797.72
2022-12-29T21:43:06.631Z,100790.69
2022-12-29T21:45:34.236Z,100793.59
2022-12-29T21:48:21.114Z,100807.03
2022-12-29T21:51:08.789Z,100808.88
2022-12-29T21:53:39.680Z,100808.28
2022-12-29T21:56:09.060Z,100807.47
2022-12-29T21:58:54.518Z,100814.69
2022-12-29T22:01:37.122Z,100817.59
2022-12-29T22:04:22.700Z,100821.31
2022-12-29T22:07:07.914Z,100818.84
2022-12-29T22:09:54.939Z,100824.44
2022-12-29T22:12:40.319Z,100834.59
2022-12-29T22:15:08.856Z,100834.78
2022-12-29T22:17:37.852Z,100838.31
2022-12-29T22:20:07.278Z,100849.47
2022-12-29T22:22:35.205Z,100852.97
2022-12-29T22:25:04.568Z,100848.22
2022-12-29T22:27:32.353Z,100867.00
2022-12-29T22:30:00.155Z,100867.22
2022-12-29T22:32:28.125Z,100869.91
2022-12-29T22:34:56.513Z,100864.75
2022-12-29T22:37:24.808Z,100878.19
2022-12-29T22:39:52.621Z,100879.22
2022-12-29T22:42:21.823Z,100885.41
2022-12-29T22:44:49.701Z,100889.13
2022-12-29T22:47:17.490Z,100904.41
2022-12-29T22:49:45.264Z,100904.63
2022-12-29T22:52:14.516Z,100907.31
2022-12-29T22:54:42.405Z,100915.56
2022-12-29T22:57:10.228Z,100908.78
2022-12-29T22:59:40.085Z,100917.88
2022-12-29T23:02:07.974Z,100924.28
2022-12-29T23:07:25.277Z,100932.31
2022-12-29T23:09:53.114Z,100930.69
2022-12-29T23:12:20.897Z,100933.34
2022-12-29T23:14:50.016Z,100936.03
2022-12-29T23:17:17.784Z,100943.28
2022-12-29T23:19:45.583Z,100936.47
2022-12-29T23:22:13.392Z,100944.53
2022-12-29T23:24:41.197Z,100946.38
2022-12-29T23:27:09.052Z,100951.75
2022-12-29T23:29:37.227Z,100949.28
2022-12-29T23:32:06.462Z,100954.25
2022-12-29T23:34:34.296Z,100960.44
2022-12-29T23:37:02.152Z,100955.91
2022-12-29T23:39:30.024Z,100959.00
2022-12-29T23:41:58.260Z,100963.56
2022-12-29T23:44:26.171Z,100962.94
2022-12-29T23:46:53.961Z,100973.66
2022-12-29T23:49:23.160Z,100965.63
2022-12-29T23:51:50.989Z,100971.19
2022-12-29T23:54:18.991Z,100976.56
2022-12-29T23:56:46.870Z,100980.28
2022-12-29T23:59:14.638Z,100983.19
